Strona główna
METAR-TAF:

METAR-TAF

Lotnisko :

Port lotniczy Fairbanks

Fairbanks, Alaska, Stany Zjednoczone

Szerokość geograficzna: 64-48-14N, Długość geograficzna: 147-52-34W, wysokość: 132 m

Aktualna obserwacja pogody

Raport powstał 52 minut temu, godzina 13:53 UTC
Wiatr 10 kt od wschodnio-północny wschód
Temperatura 0°C
Wilgotność 64%
Ciśnienie 1004 hPa
Widzialność: 16.1 km
Mało chmury na wysokości 25000 ft

METAR: PAFA 231353Z 06010KT 10SM FEW250 00/M06 A2964 RMK AO2 SLP042 T00001061 PNO $

czas: 06:45 (14:45 UTC)

Prognoza

Raport powstał 3 godziny i 25 minut temu, godzina 11:20 UTC
Prognoza ważna od 23 godzina 12 UTC do 24 godzina 18 UTC
Wiatr 4 kt od północno-północny wschód
Widzialność: 10 km
Przerywane chmury na wysokości 20000 ft
Od 23 godzina 1800 UTC
Wiatr 5 kt z kierunków zmiennych
Widzialność: 10 km
Przerywane chmury na wysokości 10000 ft

TAF: PAFA 231120Z 2312/2418 02004KT P6SM BKN200 WS015/14025KT FM231800 VRB05KT P6SM BKN100

Obserwacja i prognoza pogody dla ponad 4000 lotnisk (raport METAR i TAF).

Dostępne stacje oznaczono żółtymi i czerwonymi punktami na mapie.

Najedź kursorem aby zobaczyć nazwę stacji.

Kliknij aby zobaczyć obserwacje i prognozy pogody.

Aby zmienić mapę: kliknij na zielony przycisk z czarnym krzyżykiem, aby powiększyć; na zielony przycisk z myślnikiem, aby pomniejszyć; na zielone strzałki, aby przejść do map sąsiednich.


METAR-TAF: